sensor_id;sensor_type;location;lat;lon;timestamp;pressure;altitude;pressure_sealevel;temperature;humidity
70745;BME280;59284;31.390;34.904;2023-01-30T00:00:26;94599.97;;;16.63;100.00
70745;BME280;59284;31.390;34.904;2023-01-30T00:02:51;94591.16;;;16.19;100.00
70745;BME280;59284;31.390;34.904;2023-01-30T00:05:17;94586.13;;;16.26;100.00
70745;BME280;59284;31.390;34.904;2023-01-30T00:07:43;94588.31;;;16.48;100.00
70745;BME280;59284;31.390;34.904;2023-01-30T00:10:09;94583.28;;;16.95;100.00
70745;BME280;59284;31.390;34.904;2023-01-30T00:12:35;94593.22;;;16.62;100.00
70745;BME280;59284;31.390;34.904;2023-01-30T00:15:00;94602.69;;;17.06;100.00
70745;BME280;59284;31.390;34.904;2023-01-30T00:17:26;94600.13;;;16.94;100.00
70745;BME280;59284;31.390;34.904;2023-01-30T00:19:52;94603.63;;;16.86;100.00
70745;BME280;59284;31.390;34.904;2023-01-30T00:22:17;94606.13;;;17.22;100.00
70745;BME280;59284;31.390;34.904;2023-01-30T00:24:43;94604.28;;;16.83;100.00
70745;BME280;59284;31.390;34.904;2023-01-30T00:27:09;94595.69;;;16.46;100.00
70745;BME280;59284;31.390;34.904;2023-01-30T00:29:34;94594.63;;;16.47;100.00
70745;BME280;59284;31.390;34.904;2023-01-30T00:32:00;94600.75;;;17.03;100.00
70745;BME280;59284;31.390;34.904;2023-01-30T00:34:26;94595.25;;;16.80;100.00
70745;BME280;59284;31.390;34.904;2023-01-30T00:36:51;94607.94;;;17.34;100.00
70745;BME280;59284;31.390;34.904;2023-01-30T00:39:17;94599.25;;;17.18;100.00
70745;BME280;59284;31.390;34.904;2023-01-30T00:41:42;94610.09;;;17.44;100.00
70745;BME280;59284;31.390;34.904;2023-01-30T00:44:26;94605.50;;;17.41;100.00
70745;BME280;59284;31.390;34.904;2023-01-30T00:47:11;94609.19;;;17.24;100.00
70745;BME280;59284;31.390;34.904;2023-01-30T00:49:37;94589.16;;;17.04;100.00
70745;BME280;59284;31.390;34.904;2023-01-30T00:52:03;94594.97;;;17.25;100.00
70745;BME280;59284;31.390;34.904;2023-01-30T00:54:30;94583.53;;;16.90;100.00
70745;BME280;59284;31.390;34.904;2023-01-30T00:56:55;94604.38;;;17.26;100.00
70745;BME280;59284;31.390;34.904;2023-01-30T00:59:21;94607.41;;;17.01;100.00
70745;BME280;59284;31.390;34.904;2023-01-30T01:01:47;94605.13;;;16.59;100.00
70745;BME280;59284;31.390;34.904;2023-01-30T01:04:12;94618.94;;;17.12;100.00
70745;BME280;59284;31.390;34.904;2023-01-30T01:06:39;94622.88;;;16.78;100.00
70745;BME280;59284;31.390;34.904;2023-01-30T01:09:05;94623.22;;;17.04;100.00
70745;BME280;59284;31.390;34.904;2023-01-30T01:11:31;94626.56;;;16.77;100.00
70745;BME280;59284;31.390;34.904;2023-01-30T01:13:59;94610.81;;;17.01;100.00
70745;BME280;59284;31.390;34.904;2023-01-30T01:16:26;94606.19;;;16.70;100.00
70745;BME280;59284;31.390;34.904;2023-01-30T01:18:52;94603.00;;;16.65;100.00
70745;BME280;59284;31.390;34.904;2023-01-30T01:21:19;94597.03;;;16.64;100.00
70745;BME280;59284;31.390;34.904;2023-01-30T01:23:58;94589.97;;;16.53;100.00
70745;BME280;59284;31.390;34.904;2023-01-30T01:26:24;94585.22;;;16.46;100.00
70745;BME280;59284;31.390;34.904;2023-01-30T01:28:56;94573.47;;;16.52;100.00
70745;BME280;59284;31.390;34.904;2023-01-30T01:31:22;94584.91;;;16.48;100.00
70745;BME280;59284;31.390;34.904;2023-01-30T01:33:49;94577.28;;;16.43;100.00
70745;BME280;59284;31.390;34.904;2023-01-30T01:36:15;94578.25;;;16.50;100.00
70745;BME280;59284;31.390;34.904;2023-01-30T01:38:41;94565.03;;;16.47;100.00
70745;BME280;59284;31.390;34.904;2023-01-30T01:41:12;94539.56;;;15.71;100.00
70745;BME280;59284;31.390;34.904;2023-01-30T01:44:04;94559.75;;;16.83;100.00
70745;BME280;59284;31.390;34.904;2023-01-30T01:46:32;94563.00;;;15.68;100.00
70745;BME280;59284;31.390;34.904;2023-01-30T01:49:01;94565.69;;;16.68;100.00
70745;BME280;59284;31.390;34.904;2023-01-30T01:51:35;94556.78;;;16.33;100.00
70745;BME280;59284;31.390;34.904;2023-01-30T01:54:09;94564.06;;;16.63;100.00
70745;BME280;59284;31.390;34.904;2023-01-30T01:56:38;94531.06;;;16.10;100.00
70745;BME280;59284;31.390;34.904;2023-01-30T01:59:15;94533.16;;;15.93;100.00
70745;BME280;59284;31.390;34.904;2023-01-30T02:01:46;94553.31;;;16.16;100.00
70745;BME280;59284;31.390;34.904;2023-01-30T02:04:13;94559.72;;;16.31;100.00
70745;BME280;59284;31.390;34.904;2023-01-30T02:06:58;94568.91;;;16.13;100.00
70745;BME280;59284;31.390;34.904;2023-01-30T02:09:24;94589.28;;;16.56;100.00
70745;BME280;59284;31.390;34.904;2023-01-30T02:11:55;94580.47;;;16.88;100.00
70745;BME280;59284;31.390;34.904;2023-01-30T02:14:23;94570.75;;;16.12;100.00
70745;BME280;59284;31.390;34.904;2023-01-30T02:16:49;94574.47;;;15.99;100.00
70745;BME280;59284;31.390;34.904;2023-01-30T02:33:23;94562.25;;;16.03;100.00
70745;BME280;59284;31.390;34.904;2023-01-30T02:41:33;94556.25;;;15.79;100.00
70745;BME280;59284;31.390;34.904;2023-01-30T02:44:09;94552.66;;;15.71;100.00
70745;BME280;59284;31.390;34.904;2023-01-30T02:46:45;94552.22;;;15.69;100.00
70745;BME280;59284;31.390;34.904;2023-01-30T02:49:25;94556.13;;;15.75;100.00
70745;BME280;59284;31.390;34.904;2023-01-30T02:51:53;94558.75;;;15.63;100.00
70745;BME280;59284;31.390;34.904;2023-01-30T02:54:21;94548.09;;;15.35;100.00
70745;BME280;59284;31.390;34.904;2023-01-30T02:56:52;94536.88;;;15.35;100.00
70745;BME280;59284;31.390;34.904;2023-01-30T02:59:32;94534.06;;;15.40;100.00
70745;BME280;59284;31.390;34.904;2023-01-30T03:02:06;94551.09;;;15.46;100.00
70745;BME280;59284;31.390;34.904;2023-01-30T03:04:51;94542.38;;;15.54;100.00
70745;BME280;59284;31.390;34.904;2023-01-30T03:10:24;94569.91;;;16.08;100.00
70745;BME280;59284;31.390;34.904;2023-01-30T03:13:04;94571.75;;;16.20;100.00
70745;BME280;59284;31.390;34.904;2023-01-30T03:15:39;94581.78;;;16.18;100.00
70745;BME280;59284;31.390;34.904;2023-01-30T03:18:07;94602.81;;;16.34;100.00
70745;BME280;59284;31.390;34.904;2023-01-30T03:20:40;94593.75;;;16.19;100.00
70745;BME280;59284;31.390;34.904;2023-01-30T03:23:07;94609.56;;;16.35;100.00
70745;BME280;59284;31.390;34.904;2023-01-30T03:25:35;94615.56;;;16.47;100.00
70745;BME280;59284;31.390;34.904;2023-01-30T03:28:03;94616.97;;;16.45;100.00
70745;BME280;59284;31.390;34.904;2023-01-30T03:30:31;94610.00;;;16.12;100.00
70745;BME280;59284;31.390;34.904;2023-01-30T03:32:57;94606.97;;;16.23;100.00
70745;BME280;59284;31.390;34.904;2023-01-30T03:35:22;94613.13;;;15.82;100.00
70745;BME280;59284;31.390;34.904;2023-01-30T03:37:48;94615.13;;;15.97;100.00
70745;BME280;59284;31.390;34.904;2023-01-30T03:40:15;94616.63;;;15.98;100.00
70745;BME280;59284;31.390;34.904;2023-01-30T03:42:41;94622.41;;;15.79;100.00
70745;BME280;59284;31.390;34.904;2023-01-30T03:45:08;94633.00;;;15.95;100.00
70745;BME280;59284;31.390;34.904;2023-01-30T03:47:34;94619.34;;;15.65;100.00
70745;BME280;59284;31.390;34.904;2023-01-30T03:50:00;94619.84;;;15.59;100.00
70745;BME280;59284;31.390;34.904;2023-01-30T03:52:25;94607.56;;;15.38;100.00
70745;BME280;59284;31.390;34.904;2023-01-30T03:54:51;94607.88;;;15.37;100.00
70745;BME280;59284;31.390;34.904;2023-01-30T03:57:17;94611.47;;;15.53;100.00
70745;BME280;59284;31.390;34.904;2023-01-30T03:59:43;94618.59;;;15.77;100.00
70745;BME280;59284;31.390;34.904;2023-01-30T04:02:09;94622.41;;;15.91;100.00
70745;BME280;59284;31.390;34.904;2023-01-30T04:04:35;94616.28;;;15.42;100.00
70745;BME280;59284;31.390;34.904;2023-01-30T04:07:02;94621.78;;;15.94;100.00
70745;BME280;59284;31.390;34.904;2023-01-30T04:09:28;94621.41;;;15.72;100.00
70745;BME280;59284;31.390;34.904;2023-01-30T04:11:53;94630.81;;;15.85;100.00
70745;BME280;59284;31.390;34.904;2023-01-30T04:14:19;94642.03;;;15.85;100.00
70745;BME280;59284;31.390;34.904;2023-01-30T04:16:45;94637.47;;;15.94;100.00
70745;BME280;59284;31.390;34.904;2023-01-30T04:19:10;94639.75;;;15.84;100.00
70745;BME280;59284;31.390;34.904;2023-01-30T04:21:36;94631.97;;;15.63;100.00
70745;BME280;59284;31.390;34.904;2023-01-30T04:24:02;94635.31;;;15.64;100.00
70745;BME280;59284;31.390;34.904;2023-01-30T04:26:28;94637.84;;;15.60;100.00
70745;BME280;59284;31.390;34.904;2023-01-30T04:28:54;94625.75;;;15.35;100.00
70745;BME280;59284;31.390;34.904;2023-01-30T04:31:19;94626.53;;;15.80;100.00
70745;BME280;59284;31.390;34.904;2023-01-30T04:33:45;94642.06;;;16.22;100.00
70745;BME280;59284;31.390;34.904;2023-01-30T04:36:11;94644.50;;;16.63;100.00
70745;BME280;59284;31.390;34.904;2023-01-30T04:38:37;94648.19;;;16.50;100.00
70745;BME280;59284;31.390;34.904;2023-01-30T04:41:04;94641.44;;;16.73;100.00
70745;BME280;59284;31.390;34.904;2023-01-30T04:43:30;94645.44;;;16.46;100.00
70745;BME280;59284;31.390;34.904;2023-01-30T04:45:56;94658.00;;;16.77;100.00
70745;BME280;59284;31.390;34.904;2023-01-30T04:48:23;94665.63;;;16.94;100.00
70745;BME280;59284;31.390;34.904;2023-01-30T04:50:51;94661.53;;;16.69;100.00
70745;BME280;59284;31.390;34.904;2023-01-30T04:53:18;94677.16;;;17.17;100.00
70745;BME280;59284;31.390;34.904;2023-01-30T04:55:44;94678.38;;;17.08;100.00
70745;BME280;59284;31.390;34.904;2023-01-30T04:58:10;94689.13;;;17.30;100.00
70745;BME280;59284;31.390;34.904;2023-01-30T05:00:36;94673.72;;;16.65;100.00
70745;BME280;59284;31.390;34.904;2023-01-30T05:03:02;94675.91;;;17.27;100.00
70745;BME280;59284;31.390;34.904;2023-01-30T05:05:28;94675.63;;;17.16;100.00
70745;BME280;59284;31.390;34.904;2023-01-30T05:07:54;94664.09;;;16.81;100.00
70745;BME280;59284;31.390;34.904;2023-01-30T05:10:20;94664.78;;;16.78;100.00
70745;BME280;59284;31.390;34.904;2023-01-30T05:12:46;94667.16;;;16.83;100.00
70745;BME280;59284;31.390;34.904;2023-01-30T05:15:12;94667.63;;;16.73;100.00
70745;BME280;59284;31.390;34.904;2023-01-30T05:17:38;94675.47;;;16.85;100.00
70745;BME280;59284;31.390;34.904;2023-01-30T05:20:06;94667.13;;;17.07;100.00
70745;BME280;59284;31.390;34.904;2023-01-30T05:22:32;94670.38;;;17.16;100.00
70745;BME280;59284;31.390;34.904;2023-01-30T05:24:58;94669.25;;;17.29;100.00
70745;BME280;59284;31.390;34.904;2023-01-30T05:27:24;94680.44;;;17.02;100.00
70745;BME280;59284;31.390;34.904;2023-01-30T05:29:50;94685.22;;;17.24;100.00
70745;BME280;59284;31.390;34.904;2023-01-30T05:32:16;94698.03;;;17.81;100.00
70745;BME280;59284;31.390;34.904;2023-01-30T05:34:43;94700.75;;;17.85;100.00
70745;BME280;59284;31.390;34.904;2023-01-30T05:37:10;94692.06;;;17.69;100.00
70745;BME280;59284;31.390;34.904;2023-01-30T05:39:36;94705.91;;;17.81;100.00
70745;BME280;59284;31.390;34.904;2023-01-30T05:42:02;94704.72;;;17.79;100.00
70745;BME280;59284;31.390;34.904;2023-01-30T05:44:28;94716.22;;;18.33;100.00
70745;BME280;59284;31.390;34.904;2023-01-30T05:46:54;94715.72;;;18.43;100.00
70745;BME280;59284;31.390;34.904;2023-01-30T05:49:20;94703.56;;;17.24;100.00
70745;BME280;59284;31.390;34.904;2023-01-30T05:51:46;94723.59;;;18.28;100.00
70745;BME280;59284;31.390;34.904;2023-01-30T05:54:12;94695.88;;;16.92;100.00
70745;BME280;59284;31.390;34.904;2023-01-30T05:56:37;94700.13;;;16.84;100.00
70745;BME280;59284;31.390;34.904;2023-01-30T05:59:03;94690.09;;;16.86;100.00
70745;BME280;59284;31.390;34.904;2023-01-30T06:01:31;94708.44;;;17.38;100.00
70745;BME280;59284;31.390;34.904;2023-01-30T06:03:57;94710.94;;;17.59;100.00
70745;BME280;59284;31.390;34.904;2023-01-30T06:06:24;94708.50;;;17.02;100.00
70745;BME280;59284;31.390;34.904;2023-01-30T06:08:54;94722.28;;;18.06;100.00
70745;BME280;59284;31.390;34.904;2023-01-30T06:11:20;94731.53;;;18.00;100.00
70745;BME280;59284;31.390;34.904;2023-01-30T06:13:46;94728.66;;;17.37;100.00
70745;BME280;59284;31.390;34.904;2023-01-30T06:16:13;94732.28;;;17.33;100.00
70745;BME280;59284;31.390;34.904;2023-01-30T06:18:40;94732.66;;;17.07;100.00
70745;BME280;59284;31.390;34.904;2023-01-30T06:21:06;94744.16;;;17.54;100.00
70745;BME280;59284;31.390;34.904;2023-01-30T06:23:32;94753.59;;;17.99;100.00
70745;BME280;59284;31.390;34.904;2023-01-30T06:25:58;94761.53;;;19.24;100.00
70745;BME280;59284;31.390;34.904;2023-01-30T06:28:24;94769.19;;;17.80;100.00
70745;BME280;59284;31.390;34.904;2023-01-30T06:30:54;94758.44;;;18.87;100.00
70745;BME280;59284;31.390;34.904;2023-01-30T06:33:22;94749.41;;;18.69;100.00
70745;BME280;59284;31.390;34.904;2023-01-30T06:35:50;94749.22;;;18.77;100.00
70745;BME280;59284;31.390;34.904;2023-01-30T06:38:16;94762.38;;;18.18;100.00
70745;BME280;59284;31.390;34.904;2023-01-30T06:40:44;94754.84;;;17.89;100.00
70745;BME280;59284;31.390;34.904;2023-01-30T06:43:10;94746.22;;;17.49;100.00
70745;BME280;59284;31.390;34.904;2023-01-30T06:45:36;94761.66;;;18.06;100.00
70745;BME280;59284;31.390;34.904;2023-01-30T06:48:02;94760.44;;;18.31;100.00
70745;BME280;59284;31.390;34.904;2023-01-30T06:50:29;94762.81;;;17.93;100.00
70745;BME280;59284;31.390;34.904;2023-01-30T06:52:55;94769.72;;;18.13;100.00
70745;BME280;59284;31.390;34.904;2023-01-30T06:55:24;94767.03;;;18.25;100.00
70745;BME280;59284;31.390;34.904;2023-01-30T06:58:00;94768.22;;;18.71;100.00
70745;BME280;59284;31.390;34.904;2023-01-30T07:00:26;94769.13;;;18.47;100.00
70745;BME280;59284;31.390;34.904;2023-01-30T07:02:52;94772.47;;;18.32;100.00
70745;BME280;59284;31.390;34.904;2023-01-30T07:05:17;94759.56;;;18.55;100.00
70745;BME280;59284;31.390;34.904;2023-01-30T07:07:43;94771.38;;;19.11;100.00
70745;BME280;59284;31.390;34.904;2023-01-30T07:10:10;94784.38;;;19.20;100.00
70745;BME280;59284;31.390;34.904;2023-01-30T07:12:36;94787.31;;;19.18;100.00
70745;BME280;59284;31.390;34.904;2023-01-30T07:15:03;94767.19;;;18.60;100.00
70745;BME280;59284;31.390;34.904;2023-01-30T07:17:29;94780.16;;;18.68;100.00
70745;BME280;59284;31.390;34.904;2023-01-30T07:19:55;94785.84;;;18.27;100.00
70745;BME280;59284;31.390;34.904;2023-01-30T07:22:20;94793.25;;;19.31;100.00
70745;BME280;59284;31.390;34.904;2023-01-30T07:24:46;94792.84;;;19.29;100.00
70745;BME280;59284;31.390;34.904;2023-01-30T07:27:12;94794.31;;;19.99;100.00
70745;BME280;59284;31.390;34.904;2023-01-30T07:29:38;94801.31;;;21.17;100.00
70745;BME280;59284;31.390;34.904;2023-01-30T07:32:05;94788.34;;;20.86;100.00
70745;BME280;59284;31.390;34.904;2023-01-30T07:34:32;94784.53;;;20.19;100.00
70745;BME280;59284;31.390;34.904;2023-01-30T07:36:58;94792.44;;;20.61;100.00
70745;BME280;59284;31.390;34.904;2023-01-30T07:39:24;94793.22;;;20.00;100.00
70745;BME280;59284;31.390;34.904;2023-01-30T07:41:49;94788.06;;;20.68;100.00
70745;BME280;59284;31.390;34.904;2023-01-30T07:44:15;94794.97;;;21.22;100.00
70745;BME280;59284;31.390;34.904;2023-01-30T07:46:41;94796.22;;;19.14;100.00
70745;BME280;59284;31.390;34.904;2023-01-30T07:49:08;94784.63;;;21.92;100.00
70745;BME280;59284;31.390;34.904;2023-01-30T07:51:34;94787.72;;;20.92;100.00
70745;BME280;59284;31.390;34.904;2023-01-30T07:54:00;94791.75;;;21.35;100.00
70745;BME280;59284;31.390;34.904;2023-01-30T07:56:27;94800.94;;;20.51;100.00
70745;BME280;59284;31.390;34.904;2023-01-30T07:58:53;94788.34;;;20.21;100.00
70745;BME280;59284;31.390;34.904;2023-01-30T08:01:20;94792.13;;;21.34;100.00
70745;BME280;59284;31.390;34.904;2023-01-30T08:03:46;94791.91;;;20.74;100.00
70745;BME280;59284;31.390;34.904;2023-01-30T08:06:16;94793.16;;;20.80;100.00
70745;BME280;59284;31.390;34.904;2023-01-30T08:08:42;94801.25;;;20.07;100.00
70745;BME280;59284;31.390;34.904;2023-01-30T08:11:08;94781.31;;;21.72;100.00
70745;BME280;59284;31.390;34.904;2023-01-30T08:13:34;94782.78;;;21.40;100.00
70745;BME280;59284;31.390;34.904;2023-01-30T08:16:05;94781.63;;;22.30;100.00
70745;BME280;59284;31.390;34.904;2023-01-30T08:18:32;94783.13;;;22.68;100.00
70745;BME280;59284;31.390;34.904;2023-01-30T08:21:03;94787.06;;;21.78;100.00
70745;BME280;59284;31.390;34.904;2023-01-30T08:23:30;94787.59;;;21.08;100.00
70745;BME280;59284;31.390;34.904;2023-01-30T08:26:01;94775.09;;;23.52;100.00
70745;BME280;59284;31.390;34.904;2023-01-30T08:28:27;94783.00;;;22.17;100.00
70745;BME280;59284;31.390;34.904;2023-01-30T08:30:54;94781.94;;;24.74;100.00
70745;BME280;59284;31.390;34.904;2023-01-30T08:33:21;94765.28;;;25.16;100.00
70745;BME280;59284;31.390;34.904;2023-01-30T08:35:47;94765.53;;;22.09;100.00
70745;BME280;59284;31.390;34.904;2023-01-30T08:38:13;94760.63;;;22.84;100.00
70745;BME280;59284;31.390;34.904;2023-01-30T08:40:39;94746.97;;;27.80;100.00
70745;BME280;59284;31.390;34.904;2023-01-30T08:43:05;94750.41;;;29.41;100.00
70745;BME280;59284;31.390;34.904;2023-01-30T08:45:31;94750.06;;;25.41;100.00
70745;BME280;59284;31.390;34.904;2023-01-30T08:48:02;94738.69;;;30.13;100.00
70745;BME280;59284;31.390;34.904;2023-01-30T08:50:29;94758.72;;;22.81;100.00
70745;BME280;59284;31.390;34.904;2023-01-30T08:52:54;94744.41;;;24.55;100.00
70745;BME280;59284;31.390;34.904;2023-01-30T08:55:20;94754.22;;;21.19;100.00
70745;BME280;59284;31.390;34.904;2023-01-30T08:57:47;94755.63;;;21.39;100.00
70745;BME280;59284;31.390;34.904;2023-01-30T09:00:14;94740.53;;;23.31;100.00
70745;BME280;59284;31.390;34.904;2023-01-30T09:02:40;94753.88;;;21.50;100.00
70745;BME280;59284;31.390;34.904;2023-01-30T09:05:06;94740.06;;;21.90;100.00
70745;BME280;59284;31.390;34.904;2023-01-30T09:07:33;94749.50;;;21.61;100.00
70745;BME280;59284;31.390;34.904;2023-01-30T09:09:59;94729.63;;;25.21;100.00
70745;BME280;59284;31.390;34.904;2023-01-30T09:12:25;94715.53;;;28.02;100.00
70745;BME280;59284;31.390;34.904;2023-01-30T09:14:51;94744.38;;;22.42;100.00
70745;BME280;59284;31.390;34.904;2023-01-30T09:17:22;94734.09;;;21.37;100.00
70745;BME280;59284;31.390;34.904;2023-01-30T09:19:48;94734.44;;;22.28;100.00
70745;BME280;59284;31.390;34.904;2023-01-30T09:22:15;94732.72;;;19.12;100.00
70745;BME280;59284;31.390;34.904;2023-01-30T09:24:41;94719.59;;;23.73;100.00
70745;BME280;59284;31.390;34.904;2023-01-30T09:27:41;94681.34;;;30.30;100.00
70745;BME280;59284;31.390;34.904;2023-01-30T09:30:09;94693.31;;;29.51;100.00
70745;BME280;59284;31.390;34.904;2023-01-30T09:32:35;94689.09;;;31.38;100.00
70745;BME280;59284;31.390;34.904;2023-01-30T09:35:03;94690.78;;;26.41;100.00
70745;BME280;59284;31.390;34.904;2023-01-30T09:37:28;94699.34;;;21.91;100.00
70745;BME280;59284;31.390;34.904;2023-01-30T09:39:54;94668.94;;;26.64;100.00
70745;BME280;59284;31.390;34.904;2023-01-30T09:42:42;94702.69;;;21.02;100.00
70745;BME280;59284;31.390;34.904;2023-01-30T09:47:48;94669.28;;;25.32;100.00
70745;BME280;59284;31.390;34.904;2023-01-30T09:53:22;94683.41;;;22.65;100.00
70745;BME280;59284;31.390;34.904;2023-01-30T10:19:05;94641.53;;;29.02;100.00
70745;BME280;59284;31.390;34.904;2023-01-30T10:21:46;94634.56;;;26.39;100.00
70745;BME280;59284;31.390;34.904;2023-01-30T10:27:10;94610.59;;;29.99;100.00
70745;BME280;59284;31.390;34.904;2023-01-30T10:29:39;94606.88;;;29.22;100.00
70745;BME280;59284;31.390;34.904;2023-01-30T10:33:13;94600.72;;;31.63;100.00
70745;BME280;59284;31.390;34.904;2023-01-30T10:35:16;94593.03;;;29.98;100.00
70745;BME280;59284;31.390;34.904;2023-01-30T10:43:47;94588.50;;;28.58;100.00
70745;BME280;59284;31.390;34.904;2023-01-30T10:49:39;94590.28;;;28.68;100.00
70745;BME280;59284;31.390;34.904;2023-01-30T10:57:41;94589.97;;;25.37;100.00
70745;BME280;59284;31.390;34.904;2023-01-30T11:00:28;94605.50;;;22.04;100.00
70745;BME280;59284;31.390;34.904;2023-01-30T11:05:53;94596.31;;;22.35;100.00
70745;BME280;59284;31.390;34.904;2023-01-30T11:08:26;94593.19;;;21.82;100.00
70745;BME280;59284;31.390;34.904;2023-01-30T11:10:53;94604.94;;;21.15;100.00
70745;BME280;59284;31.390;34.904;2023-01-30T11:13:21;94595.97;;;21.93;100.00
70745;BME280;59284;31.390;34.904;2023-01-30T11:15:52;94555.09;;;28.73;100.00
70745;BME280;59284;31.390;34.904;2023-01-30T11:18:19;94590.53;;;22.19;100.00
70745;BME280;59284;31.390;34.904;2023-01-30T11:20:57;94586.63;;;20.69;100.00
70745;BME280;59284;31.390;34.904;2023-01-30T11:23:39;94566.53;;;30.20;100.00
70745;BME280;59284;31.390;34.904;2023-01-30T11:26:05;94561.03;;;27.31;100.00
70745;BME280;59284;31.390;34.904;2023-01-30T11:28:42;94579.81;;;25.91;100.00
70745;BME280;59284;31.390;34.904;2023-01-30T11:31:26;94561.63;;;30.18;100.00
70745;BME280;59284;31.390;34.904;2023-01-30T11:34:00;94577.69;;;24.67;100.00
70745;BME280;59284;31.390;34.904;2023-01-30T11:36:31;94559.47;;;28.40;100.00
70745;BME280;59284;31.390;34.904;2023-01-30T11:38:59;94549.41;;;30.33;100.00
70745;BME280;59284;31.390;34.904;2023-01-30T11:41:26;94540.94;;;30.96;100.00
70745;BME280;59284;31.390;34.904;2023-01-30T11:44:00;94542.88;;;29.50;100.00
70745;BME280;59284;31.390;34.904;2023-01-30T11:46:30;94554.59;;;24.43;100.00
70745;BME280;59284;31.390;34.904;2023-01-30T11:49:02;94559.16;;;24.00;100.00
70745;BME280;59284;31.390;34.904;2023-01-30T11:51:34;94566.91;;;20.60;100.00
70745;BME280;59284;31.390;34.904;2023-01-30T11:54:06;94569.50;;;20.07;100.00
70745;BME280;59284;31.390;34.904;2023-01-30T11:56:51;94530.59;;;30.05;100.00
70745;BME280;59284;31.390;34.904;2023-01-30T11:59:37;94530.09;;;29.42;100.00
70745;BME280;59284;31.390;34.904;2023-01-30T12:02:24;94540.16;;;24.86;100.00
70745;BME280;59284;31.390;34.904;2023-01-30T12:04:55;94558.97;;;21.16;100.00
70745;BME280;59284;31.390;34.904;2023-01-30T12:07:24;94535.75;;;25.97;100.00
70745;BME280;59284;31.390;34.904;2023-01-30T12:09:51;94537.81;;;28.11;100.00
70745;BME280;59284;31.390;34.904;2023-01-30T12:23:16;94530.63;;;23.09;100.00
70745;BME280;59284;31.390;34.904;2023-01-30T12:25:55;94541.97;;;21.50;100.00
70745;BME280;59284;31.390;34.904;2023-01-30T12:28:43;94539.19;;;25.90;100.00
70745;BME280;59284;31.390;34.904;2023-01-30T12:31:23;94515.06;;;29.83;100.00
70745;BME280;59284;31.390;34.904;2023-01-30T12:33:50;94544.84;;;21.78;100.00
70745;BME280;59284;31.390;34.904;2023-01-30T12:45:23;94531.81;;;24.74;100.00
70745;BME280;59284;31.390;34.904;2023-01-30T13:07:13;94545.25;;;26.83;100.00
70745;BME280;59284;31.390;34.904;2023-01-30T13:15:46;94551.78;;;26.34;100.00
70745;BME280;59284;31.390;34.904;2023-01-30T13:18:12;94552.75;;;28.09;100.00
70745;BME280;59284;31.390;34.904;2023-01-30T13:26:23;94577.31;;;20.23;100.00
70745;BME280;59284;31.390;34.904;2023-01-30T13:28:55;94559.00;;;25.06;100.00
70745;BME280;59284;31.390;34.904;2023-01-30T13:31:25;94570.25;;;21.86;100.00
70745;BME280;59284;31.390;34.904;2023-01-30T13:34:05;94563.88;;;25.22;100.00
70745;BME280;59284;31.390;34.904;2023-01-30T13:36:58;94562.00;;;25.19;100.00
70745;BME280;59284;31.390;34.904;2023-01-30T13:44:59;94589.50;;;19.06;100.00
70745;BME280;59284;31.390;34.904;2023-01-30T13:47:47;94599.22;;;19.05;100.00
70745;BME280;59284;31.390;34.904;2023-01-30T13:50:39;94587.66;;;19.48;100.00
70745;BME280;59284;31.390;34.904;2023-01-30T13:53:19;94578.03;;;22.19;100.00
70745;BME280;59284;31.390;34.904;2023-01-30T13:58:59;94590.91;;;19.83;100.00
70745;BME280;59284;31.390;34.904;2023-01-30T14:12:35;94591.03;;;17.75;100.00
70745;BME280;59284;31.390;34.904;2023-01-30T14:17:36;94586.28;;;17.96;100.00
70745;BME280;59284;31.390;34.904;2023-01-30T14:20:16;94590.69;;;18.23;100.00
70745;BME280;59284;31.390;34.904;2023-01-30T14:22:50;94594.16;;;17.96;100.00
70745;BME280;59284;31.390;34.904;2023-01-30T14:32:57;94592.56;;;17.48;100.00
70745;BME280;59284;31.390;34.904;2023-01-30T14:35:29;94592.38;;;17.41;100.00
70745;BME280;59284;31.390;34.904;2023-01-30T14:38:16;94588.53;;;17.50;100.00
70745;BME280;59284;31.390;34.904;2023-01-30T14:40:47;94584.69;;;17.76;100.00
70745;BME280;59284;31.390;34.904;2023-01-30T14:45:55;94595.56;;;19.48;100.00
70745;BME280;59284;31.390;34.904;2023-01-30T14:48:51;94599.47;;;19.99;100.00
70745;BME280;59284;31.390;34.904;2023-01-30T14:56:55;94583.19;;;18.91;100.00
70745;BME280;59284;31.390;34.904;2023-01-30T14:59:38;94581.53;;;18.48;100.00
70745;BME280;59284;31.390;34.904;2023-01-30T15:05:27;94582.28;;;17.27;100.00
70745;BME280;59284;31.390;34.904;2023-01-30T15:07:54;94576.66;;;17.13;100.00
70745;BME280;59284;31.390;34.904;2023-01-30T15:18:53;94559.75;;;15.95;100.00
70745;BME280;59284;31.390;34.904;2023-01-30T15:26:41;94552.31;;;16.33;100.00
70745;BME280;59284;31.390;34.904;2023-01-30T15:32:16;94540.56;;;15.79;100.00
70745;BME280;59284;31.390;34.904;2023-01-30T15:37:38;94544.38;;;16.17;100.00
70745;BME280;59284;31.390;34.904;2023-01-30T15:40:18;94536.97;;;15.71;100.00
70745;BME280;59284;31.390;34.904;2023-01-30T15:42:55;94555.91;;;15.56;100.00
70745;BME280;59284;31.390;34.904;2023-01-30T15:45:45;94544.66;;;15.11;100.00
70745;BME280;59284;31.390;34.904;2023-01-30T15:50:48;94533.03;;;14.88;100.00
70745;BME280;59284;31.390;34.904;2023-01-30T15:53:15;94532.03;;;15.13;100.00
70745;BME280;59284;31.390;34.904;2023-01-30T15:55:42;94534.44;;;15.18;100.00
70745;BME280;59284;31.390;34.904;2023-01-30T15:58:13;94526.81;;;14.80;100.00